Time;durP1;ratioP1;P1;durP2;ratioP2;P2;SDS_P1;SDS_P2;PMS_P1;PMS_P2;Temp;Humidity;BMP_temperature;BMP_pressure;BME280_temperature;BME280_humidity;BME280_pressure;Samples;Min_cycle;Max_cycle;Signal;HPM_P1;HPM_P2
2023/01/29 00:01:09;;;;;;;43.22;21.65;;;0.00;99.90;;;;;;5070612;28;20221;-46
2023/01/29 00:03:34;;;;;;;46.03;23.02;;;0.00;99.90;;;;;;5072742;28;20158;-46
2023/01/29 00:06:05;;;;;;;44.42;22.10;;;0.00;99.90;;;;;;5072469;28;20208;-46
2023/01/29 00:08:33;;;;;;;45.20;21.38;;;0.00;99.90;;;;;;5073274;28;20169;-46
2023/01/29 00:11:06;;;;;;;42.92;22.52;;;0.00;99.90;;;;;;5071595;28;20171;-46
2023/01/29 00:13:33;;;;;;;40.60;21.60;;;0.00;99.90;;;;;;5073156;28;20181;-46
2023/01/29 00:16:00;;;;;;;47.53;22.38;;;0.00;99.90;;;;;;5072602;28;20174;-46
2023/01/29 00:18:28;;;;;;;40.77;21.90;;;0.00;99.90;;;;;;5072714;28;20257;-46
2023/01/29 00:20:53;;;;;;;46.22;22.55;;;-0.10;99.90;;;;;;5072489;28;20181;-46
2023/01/29 00:23:19;;;;;;;43.40;21.42;;;-0.10;99.90;;;;;;5065960;28;20174;-46
2023/01/29 00:25:45;;;;;;;44.75;22.40;;;-0.10;99.90;;;;;;5052516;28;20658;-46
2023/01/29 00:28:11;;;;;;;42.65;21.67;;;0.00;99.90;;;;;;5052461;28;20178;-47
2023/01/29 00:30:37;;;;;;;36.10;19.95;;;0.00;99.90;;;;;;5052272;28;20174;-47
2023/01/29 00:33:04;;;;;;;46.40;23.02;;;-0.10;99.90;;;;;;5052524;28;20499;-48
2023/01/29 00:35:30;;;;;;;47.70;22.35;;;-0.10;99.90;;;;;;5052486;28;20170;-45
2023/01/29 00:37:56;;;;;;;40.88;20.27;;;-0.10;99.90;;;;;;5052168;28;20169;-45
2023/01/29 00:40:22;;;;;;;43.78;23.15;;;-0.10;99.90;;;;;;5052280;28;20692;-46
2023/01/29 00:45:35;;;;;;;43.95;21.85;;;0.00;99.90;;;;;;5052713;28;20205;-47
2023/01/29 00:48:01;;;;;;;38.80;20.45;;;-0.10;99.90;;;;;;5051565;28;20174;-47
2023/01/29 00:50:27;;;;;;;38.58;20.17;;;-0.10;99.90;;;;;;5052211;28;20171;-48
2023/01/29 00:52:53;;;;;;;41.45;20.52;;;-0.10;99.90;;;;;;5054481;28;20584;-46
2023/01/29 00:55:19;;;;;;;43.28;21.23;;;-0.10;99.90;;;;;;5069879;28;20174;-46
2023/01/29 00:57:44;;;;;;;40.72;20.83;;;-0.10;99.90;;;;;;5071990;28;20169;-45
2023/01/29 01:00:13;;;;;;;45.35;21.35;;;-0.10;99.90;;;;;;5071634;28;20169;-46
2023/01/29 01:05:23;;;;;;;37.05;21.10;;;-0.20;99.90;;;;;;5071428;28;20719;-45
2023/01/29 01:07:51;;;;;;;41.67;21.35;;;-0.20;99.90;;;;;;5071942;28;20166;-45
2023/01/29 01:10:21;;;;;;;43.45;20.73;;;-0.20;99.90;;;;;;5071805;28;20195;-45
2023/01/29 01:12:49;;;;;;;42.70;21.33;;;-0.10;99.90;;;;;;5071894;28;20169;-45
2023/01/29 01:15:15;;;;;;;41.60;20.75;;;-0.20;99.90;;;;;;5071963;28;20260;-45
2023/01/29 01:17:41;;;;;;;42.30;21.13;;;-0.20;99.90;;;;;;5071705;28;20176;-46
2023/01/29 01:20:07;;;;;;;51.28;21.88;;;-0.30;99.90;;;;;;5071656;28;20166;-45
2023/01/29 01:22:33;;;;;;;42.90;20.92;;;-0.20;99.90;;;;;;5071155;28;20165;-46
2023/01/29 01:24:58;;;;;;;39.72;20.40;;;-0.20;99.90;;;;;;5070421;28;20213;-45
2023/01/29 01:27:24;;;;;;;37.38;20.20;;;-0.20;99.90;;;;;;5071317;28;20187;-45
2023/01/29 01:29:50;;;;;;;39.90;20.83;;;-0.20;99.90;;;;;;5071291;28;20243;-45
2023/01/29 01:32:16;;;;;;;44.57;20.97;;;-0.30;99.90;;;;;;5071030;28;20181;-45
2023/01/29 01:34:44;;;;;;;44.58;20.50;;;-0.30;99.90;;;;;;5071070;28;20166;-45
2023/01/29 01:37:10;;;;;;;43.40;22.17;;;-0.30;99.90;;;;;;5071384;28;20223;-45
2023/01/29 01:39:35;;;;;;;41.53;19.33;;;-0.30;99.90;;;;;;5070984;28;20166;-46
2023/01/29 01:42:01;;;;;;;41.67;20.35;;;-0.30;99.90;;;;;;5071395;28;20210;-46
2023/01/29 01:45:06;;;;;;;40.05;20.05;;;-0.30;99.90;;;;;;5071123;28;20162;-45
2023/01/29 01:47:46;;;;;;;43.08;20.90;;;-0.30;99.90;;;;;;5071427;28;20223;-45
2023/01/29 01:50:17;;;;;;;38.80;19.52;;;-0.30;99.90;;;;;;5070977;28;20587;-45
2023/01/29 01:52:50;;;;;;;42.85;20.13;;;-0.30;99.90;;;;;;5067312;28;20262;-45
2023/01/29 01:55:20;;;;;;;42.40;21.58;;;-0.30;99.90;;;;;;5050933;28;20162;-45
2023/01/29 01:57:49;;;;;;;48.15;20.70;;;-0.40;99.90;;;;;;5050948;28;20159;-45
2023/01/29 02:00:17;;;;;;;37.65;19.98;;;-0.40;99.90;;;;;;5053678;28;20158;-45
2023/01/29 02:11:09;;;;;;;42.08;20.83;;;-0.50;99.90;;;;;;5055062;28;20166;-45
2023/01/29 02:13:35;;;;;;;42.80;21.65;;;-0.50;99.90;;;;;;5056384;28;20178;-45
2023/01/29 02:16:00;;;;;;;43.60;20.63;;;-0.40;99.90;;;;;;5054115;28;20167;-45
2023/01/29 02:18:26;;;;;;;39.75;20.35;;;-0.40;99.90;;;;;;5054978;28;20185;-45
2023/01/29 02:21:29;;;;;;;45.85;20.20;;;-0.50;99.90;;;;;;5054889;28;20167;-45
2023/01/29 02:24:33;;;;;;;43.38;20.92;;;-0.40;99.90;;;;;;5054514;28;20174;-45
2023/01/29 02:27:07;;;;;;;45.65;22.50;;;-0.40;99.90;;;;;;5012936;28;20235;-45
2023/01/29 02:30:04;;;;;;;42.22;18.90;;;-0.50;99.90;;;;;;5012586;28;20620;-45
2023/01/29 02:32:53;;;;;;;43.83;20.73;;;-0.50;99.90;;;;;;5048931;28;20646;-45
2023/01/29 02:35:36;;;;;;;43.40;20.60;;;-0.50;99.90;;;;;;5074596;28;20168;-45
2023/01/29 02:38:23;;;;;;;48.45;21.70;;;-0.50;99.90;;;;;;5074353;28;20165;-45
2023/01/29 02:41:13;;;;;;;40.95;20.85;;;-0.50;99.90;;;;;;5074402;28;20219;-45
2023/01/29 02:44:10;;;;;;;38.80;20.20;;;-0.50;99.90;;;;;;5074383;28;20170;-45
2023/01/29 02:46:57;;;;;;;42.25;20.30;;;-0.50;99.90;;;;;;5068360;28;20863;-45
2023/01/29 02:49:34;;;;;;;41.38;20.13;;;-0.50;99.90;;;;;;5065869;28;20198;-45
2023/01/29 02:52:18;;;;;;;42.08;21.27;;;-0.50;99.90;;;;;;5054611;28;20659;-45
2023/01/29 02:55:01;;;;;;;45.65;21.05;;;-0.50;99.90;;;;;;5054312;28;20808;-45
2023/01/29 02:57:32;;;;;;;43.70;20.63;;;-0.60;99.90;;;;;;5054260;28;20244;-45
2023/01/29 03:00:05;;;;;;;36.47;19.38;;;-0.70;99.90;;;;;;5054143;28;20158;-45
2023/01/29 03:02:47;;;;;;;40.03;20.85;;;-0.60;99.90;;;;;;5060331;28;20231;-45
2023/01/29 03:05:20;;;;;;;43.40;20.50;;;-0.60;99.90;;;;;;5072092;28;20224;-45
2023/01/29 03:07:57;;;;;;;42.08;21.83;;;-0.50;99.90;;;;;;5074172;28;20185;-45
2023/01/29 03:10:35;;;;;;;39.75;21.67;;;-0.50;99.90;;;;;;5073120;28;20214;-45
2023/01/29 03:13:31;;;;;;;40.55;20.00;;;-0.60;99.90;;;;;;5074355;28;20248;-45
2023/01/29 03:16:04;;;;;;;48.53;22.73;;;-0.60;99.90;;;;;;5073473;28;20166;-45
2023/01/29 03:18:40;;;;;;;42.53;21.17;;;-0.50;99.90;;;;;;5074550;28;20211;-45
2023/01/29 03:21:49;;;;;;;42.08;22.05;;;-0.50;99.90;;;;;;5072961;28;20174;-45
2023/01/29 03:32:18;;;;;;;50.35;22.38;;;-1.10;99.90;;;;;;5067561;28;20213;-45
2023/01/29 03:34:48;;;;;;;42.85;19.60;;;-1.30;99.90;;;;;;5053510;28;20166;-45
2023/01/29 03:37:34;;;;;;;46.22;22.48;;;-1.20;99.90;;;;;;5053676;28;20208;-45
2023/01/29 03:40:02;;;;;;;46.87;22.60;;;-1.10;99.90;;;;;;5054011;28;20174;-45
2023/01/29 03:43:00;;;;;;;47.67;22.27;;;-1.00;99.90;;;;;;5052477;28;20170;-45
2023/01/29 03:45:37;;;;;;;49.33;22.13;;;-0.90;99.90;;;;;;5053574;28;20251;-45
2023/01/29 03:48:14;;;;;;;47.35;22.60;;;-0.90;99.90;;;;;;5053755;28;20630;-45
2023/01/29 03:51:00;;;;;;;46.43;22.97;;;-0.80;99.90;;;;;;5053151;28;20181;-46
2023/01/29 03:54:13;;;;;;;46.80;22.23;;;-0.80;99.90;;;;;;5053418;28;20170;-47
2023/01/29 03:57:14;;;;;;;46.20;23.00;;;-0.80;99.90;;;;;;5053233;28;20170;-46
2023/01/29 03:59:54;;;;;;;43.67;21.83;;;-0.70;99.90;;;;;;5034211;28;20561;-46
2023/01/29 04:02:28;;;;;;;49.43;23.90;;;-0.70;99.90;;;;;;5059465;28;20169;-46
2023/01/29 04:04:58;;;;;;;41.33;22.43;;;-0.70;99.90;;;;;;5072554;28;20735;-47
2023/01/29 04:07:26;;;;;;;40.22;21.02;;;-0.80;99.90;;;;;;5072807;28;20281;-46
2023/01/29 04:10:15;;;;;;;43.47;21.20;;;-0.80;99.90;;;;;;5073098;28;20166;-47
2023/01/29 04:12:51;;;;;;;46.97;21.85;;;-0.70;99.90;;;;;;5072699;28;20181;-46
2023/01/29 04:15:19;;;;;;;41.97;20.90;;;-0.70;99.90;;;;;;5072614;28;20612;-46
2023/01/29 04:17:51;;;;;;;43.03;22.23;;;-0.80;99.90;;;;;;5072723;28;20538;-46
2023/01/29 04:20:19;;;;;;;40.55;21.10;;;-0.80;99.90;;;;;;5072847;28;20177;-47
2023/01/29 04:22:46;;;;;;;48.42;22.27;;;-0.80;99.90;;;;;;5072449;28;20531;-47
2023/01/29 04:25:25;;;;;;;45.92;22.00;;;-0.80;99.90;;;;;;5072751;28;20177;-47
2023/01/29 04:28:02;;;;;;;46.85;23.00;;;-0.70;99.90;;;;;;5072871;28;20533;-47
2023/01/29 04:30:30;;;;;;;44.03;22.77;;;-0.80;99.90;;;;;;5072422;28;20668;-47
2023/01/29 04:33:09;;;;;;;44.45;22.80;;;-0.70;99.90;;;;;;5071180;28;20182;-47
2023/01/29 04:35:53;;;;;;;40.55;21.48;;;-0.70;99.90;;;;;;5071545;28;20257;-46
2023/01/29 04:38:56;;;;;;;43.95;22.30;;;-0.80;99.90;;;;;;5070621;28;20165;-47
2023/01/29 04:41:25;;;;;;;44.22;21.90;;;-0.80;99.90;;;;;;5071711;28;20517;-46
2023/01/29 04:44:09;;;;;;;46.53;23.25;;;-0.80;99.90;;;;;;5071760;28;20165;-45
2023/01/29 04:46:53;;;;;;;46.33;20.65;;;-0.80;99.90;;;;;;5071513;28;20684;-45
2023/01/29 04:49:26;;;;;;;45.83;23.73;;;-0.80;99.90;;;;;;5071539;28;20170;-45
2023/01/29 04:52:04;;;;;;;46.40;23.73;;;-0.70;99.90;;;;;;5071443;28;20170;-45
2023/01/29 04:55:00;;;;;;;51.78;23.90;;;-0.80;99.90;;;;;;5071919;28;20162;-45
2023/01/29 04:57:31;;;;;;;49.57;24.30;;;-0.80;99.90;;;;;;5071371;28;20634;-45
2023/01/29 05:00:15;;;;;;;48.80;25.38;;;-0.80;99.90;;;;;;5071304;28;20166;-45
2023/01/29 05:02:43;;;;;;;42.67;23.25;;;-2.90;99.90;;;;;;5060419;28;20257;-45
2023/01/29 05:05:11;;;;;;;46.92;23.05;;;-0.80;99.90;;;;;;5051195;28;20217;-45
2023/01/29 05:07:37;;;;;;;48.95;23.95;;;-0.80;99.90;;;;;;5051327;28;20312;-45
2023/01/29 05:10:08;;;;;;;52.17;24.97;;;-0.90;99.90;;;;;;5051581;28;20166;-45
2023/01/29 05:12:35;;;;;;;52.67;25.13;;;-0.90;99.90;;;;;;5051713;28;20647;-45
2023/01/29 05:15:04;;;;;;;51.17;25.50;;;-0.80;99.90;;;;;;5051633;28;20667;-45
2023/01/29 05:17:29;;;;;;;48.05;24.67;;;-0.80;99.90;;;;;;5051141;28;20174;-45
2023/01/29 05:19:55;;;;;;;48.80;23.23;;;-0.80;99.90;;;;;;5051590;28;20170;-45
2023/01/29 05:22:22;;;;;;;50.33;23.83;;;-0.80;99.90;;;;;;5051065;28;20163;-45
2023/01/29 05:24:48;;;;;;;51.92;24.58;;;-0.80;99.90;;;;;;5051361;28;20325;-45
2023/01/29 05:30:06;;;;;;;47.65;23.80;;;-0.80;99.90;;;;;;5051028;28;20708;-45
2023/01/29 05:32:31;;;;;;;52.40;25.67;;;-0.70;99.90;;;;;;5061136;28;20173;-45
2023/01/29 05:34:57;;;;;;;43.40;23.08;;;-0.80;99.90;;;;;;5075970;28;20528;-45
2023/01/29 05:37:23;;;;;;;53.63;25.00;;;-0.80;99.90;;;;;;5077933;28;20192;-45
2023/01/29 05:39:48;;;;;;;46.65;23.48;;;-0.70;99.90;;;;;;5077618;28;20165;-45
2023/01/29 05:42:14;;;;;;;48.30;24.83;;;-0.80;99.90;;;;;;5078022;28;20599;-45
2023/01/29 05:44:39;;;;;;;47.78;24.30;;;-0.70;99.90;;;;;;5077734;28;20177;-45
2023/01/29 05:47:05;;;;;;;47.25;23.33;;;-0.70;99.90;;;;;;5077561;28;20215;-45
2023/01/29 05:49:30;;;;;;;45.38;22.80;;;-0.70;99.90;;;;;;5078440;28;20212;-45
2023/01/29 05:51:56;;;;;;;55.53;24.38;;;-0.70;99.90;;;;;;5077748;28;20249;-45
2023/01/29 05:54:21;;;;;;;49.42;22.88;;;-0.90;99.90;;;;;;5078175;28;20208;-45
2023/01/29 05:56:47;;;;;;;49.72;23.48;;;-0.90;99.90;;;;;;5078400;28;20288;-45
2023/01/29 05:59:14;;;;;;;47.95;23.52;;;-1.00;99.90;;;;;;5078042;28;20198;-45
2023/01/29 06:01:40;;;;;;;44.38;22.75;;;-1.00;99.90;;;;;;5073436;28;20170;-45
2023/01/29 06:04:05;;;;;;;46.97;22.73;;;-1.10;99.90;;;;;;5065594;28;20221;-45
2023/01/29 06:06:31;;;;;;;63.67;25.65;;;-1.10;99.90;;;;;;5078255;28;20234;-45
2023/01/29 06:08:56;;;;;;;49.60;24.17;;;-0.90;99.90;;;;;;5078196;28;20252;-45
2023/01/29 06:11:22;;;;;;;53.97;26.77;;;-0.90;99.90;;;;;;5078229;28;20200;-45
2023/01/29 06:13:48;;;;;;;52.85;24.00;;;-0.90;99.90;;;;;;5078210;28;20201;-45
2023/01/29 06:16:15;;;;;;;48.63;24.35;;;-0.80;99.90;;;;;;5078154;28;20208;-45
2023/01/29 06:18:41;;;;;;;45.25;24.23;;;-0.80;99.90;;;;;;5077821;28;20979;-45
2023/01/29 06:21:09;;;;;;;53.45;24.48;;;-0.70;99.90;;;;;;5077767;28;20193;-45
2023/01/29 06:23:35;;;;;;;62.63;29.23;;;-0.60;99.90;;;;;;5078110;28;20224;-45
2023/01/29 06:26:07;;;;;;;54.35;25.42;;;-0.70;99.90;;;;;;5078184;28;20201;-45
2023/01/29 06:28:33;;;;;;;54.97;25.42;;;-0.70;99.90;;;;;;5078263;28;20192;-45
2023/01/29 06:31:00;;;;;;;50.07;24.17;;;-0.60;99.90;;;;;;5077830;28;20625;-45
2023/01/29 06:33:26;;;;;;;46.67;24.13;;;-0.60;99.90;;;;;;5075924;28;20223;-45
2023/01/29 06:36:10;;;;;;;45.10;23.13;;;-0.60;99.90;;;;;;5057717;28;20170;-45
2023/01/29 06:38:35;;;;;;;47.00;22.85;;;-0.50;99.90;;;;;;5057589;28;20167;-45
2023/01/29 06:41:08;;;;;;;44.33;22.40;;;-0.40;99.90;;;;;;5058132;28;20181;-45
2023/01/29 06:43:34;;;;;;;50.90;24.35;;;-0.50;99.90;;;;;;5057631;28;20647;-45
2023/01/29 06:45:59;;;;;;;53.38;25.77;;;-0.40;99.90;;;;;;5056118;28;20210;-45
2023/01/29 06:48:25;;;;;;;42.65;23.52;;;-0.40;99.90;;;;;;5054486;28;20173;-45
2023/01/29 06:50:53;;;;;;;48.97;23.55;;;-0.30;99.90;;;;;;5054467;28;20170;-45
2023/01/29 06:53:19;;;;;;;49.70;23.75;;;-0.30;99.90;;;;;;5054657;28;20587;-45
2023/01/29 06:55:50;;;;;;;51.42;24.88;;;-0.20;99.90;;;;;;5054339;28;20167;-45
2023/01/29 06:58:16;;;;;;;48.95;23.60;;;-0.20;99.90;;;;;;5054266;28;20559;-45
2023/01/29 07:00:42;;;;;;;48.80;23.38;;;-0.20;99.90;;;;;;5054261;28;20249;-45
2023/01/29 07:03:09;;;;;;;48.00;23.50;;;-0.30;99.90;;;;;;5054476;28;20174;-45
2023/01/29 07:05:35;;;;;;;47.45;22.60;;;-0.40;99.90;;;;;;5072715;28;20224;-45
2023/01/29 07:08:00;;;;;;;43.88;22.15;;;-0.50;99.90;;;;;;5073225;28;20169;-46
2023/01/29 07:10:26;;;;;;;46.17;23.38;;;-0.60;99.90;;;;;;5074069;28;20178;-45
2023/01/29 07:12:51;;;;;;;43.53;21.15;;;-0.60;99.90;;;;;;5073962;28;20181;-45
2023/01/29 07:15:19;;;;;;;49.67;24.23;;;-0.60;99.90;;;;;;5073799;28;20633;-45
2023/01/29 07:18:10;;;;;;;54.33;25.13;;;-0.60;99.90;;;;;;5073548;28;20185;-45
2023/01/29 07:20:40;;;;;;;48.70;24.40;;;-0.50;99.90;;;;;;5053949;28;20498;-45
2023/01/29 07:23:08;;;;;;;49.20;26.20;;;-0.40;99.90;;;;;;5053876;28;20194;-45
2023/01/29 07:25:33;;;;;;;52.28;25.13;;;-0.40;99.90;;;;;;5054176;28;20190;-45
2023/01/29 07:28:00;;;;;;;56.00;24.55;;;-0.30;99.90;;;;;;5054264;28;20174;-45
2023/01/29 07:30:26;;;;;;;50.67;25.50;;;-0.20;99.90;;;;;;5053664;28;20657;-45
2023/01/29 07:32:51;;;;;;;51.42;23.60;;;-0.10;99.90;;;;;;5053649;28;20181;-45
2023/01/29 07:35:17;;;;;;;53.80;25.05;;;-0.10;99.90;;;;;;5057025;28;20182;-45
2023/01/29 07:37:43;;;;;;;51.60;25.10;;;-0.20;99.90;;;;;;5072535;28;20257;-45
2023/01/29 07:40:10;;;;;;;54.17;24.27;;;-0.20;99.90;;;;;;5072357;28;20198;-45
2023/01/29 07:42:37;;;;;;;65.65;30.77;;;-0.20;99.90;;;;;;5073209;28;20174;-45
2023/01/29 07:45:04;;;;;;;62.33;29.73;;;-0.10;99.90;;;;;;5073496;28;20158;-45
2023/01/29 07:47:30;;;;;;;51.35;24.77;;;-0.10;99.90;;;;;;5073514;28;20618;-45
2023/01/29 07:49:55;;;;;;;58.58;26.98;;;0.00;99.90;;;;;;5073269;28;20190;-45
2023/01/29 07:52:21;;;;;;;48.17;25.75;;;0.10;99.90;;;;;;5073244;28;20204;-45
2023/01/29 07:54:46;;;;;;;47.42;23.50;;;0.00;99.90;;;;;;5058595;28;20175;-45
2023/01/29 07:57:12;;;;;;;46.65;24.98;;;0.00;99.90;;;;;;5052415;28;20209;-45
2023/01/29 07:59:37;;;;;;;48.63;24.02;;;0.10;99.90;;;;;;5052732;28;20171;-45
2023/01/29 08:02:03;;;;;;;43.17;21.98;;;0.00;99.90;;;;;;5053331;28;20175;-45
2023/01/29 08:04:29;;;;;;;46.83;24.33;;;0.10;99.90;;;;;;5053080;28;20222;-45
2023/01/29 08:06:54;;;;;;;52.53;24.55;;;0.10;99.90;;;;;;5052348;28;20606;-45
2023/01/29 08:09:20;;;;;;;60.35;27.23;;;0.10;99.90;;;;;;5052940;28;20627;-45
2023/01/29 08:11:45;;;;;;;45.13;22.23;;;0.10;99.90;;;;;;5052905;28;20167;-45
2023/01/29 08:14:11;;;;;;;43.22;23.95;;;0.20;99.90;;;;;;5064073;28;20177;-45
2023/01/29 08:16:36;;;;;;;42.92;22.67;;;-1.10;99.90;;;;;;5072577;28;20166;-45
2023/01/29 08:19:02;;;;;;;45.92;23.35;;;0.10;99.90;;;;;;5070966;28;20182;-45
2023/01/29 08:21:28;;;;;;;51.00;24.75;;;0.20;99.90;;;;;;5072354;28;20173;-45
2023/01/29 08:23:53;;;;;;;47.88;23.92;;;0.20;99.90;;;;;;5072383;28;20162;-45
2023/01/29 08:26:19;;;;;;;45.60;23.35;;;0.20;99.90;;;;;;5072409;28;20263;-45
2023/01/29 08:28:44;;;;;;;44.88;23.02;;;0.30;99.90;;;;;;5072452;28;20184;-45
2023/01/29 08:31:19;;;;;;;48.45;24.88;;;0.50;99.90;;;;;;5072414;28;20524;-45
2023/01/29 08:33:45;;;;;;;50.70;24.30;;;0.50;99.90;;;;;;5070976;28;20176;-45
2023/01/29 08:36:11;;;;;;;51.80;25.42;;;0.50;99.90;;;;;;5072382;28;20162;-45
2023/01/29 08:38:36;;;;;;;57.40;26.95;;;0.50;99.90;;;;;;5072473;28;20166;-45
2023/01/29 08:41:02;;;;;;;57.42;27.30;;;0.60;99.90;;;;;;5072614;28;20216;-44
2023/01/29 08:43:28;;;;;;;57.90;27.17;;;0.50;99.90;;;;;;5072134;28;20184;-45
2023/01/29 08:45:53;;;;;;;63.60;29.88;;;0.70;99.90;;;;;;5072255;28;20212;-45
2023/01/29 08:48:19;;;;;;;66.35;29.52;;;0.70;99.90;;;;;;5072074;28;20645;-45
2023/01/29 08:50:44;;;;;;;69.40;32.05;;;0.60;99.90;;;;;;5071996;28;20691;-45
2023/01/29 08:53:10;;;;;;;60.83;29.33;;;0.60;99.90;;;;;;5064274;28;20185;-45
2023/01/29 08:55:37;;;;;;;59.03;26.90;;;0.60;99.90;;;;;;5051175;28;20587;-45
2023/01/29 08:58:04;;;;;;;67.32;30.40;;;0.70;99.90;;;;;;5050881;28;20224;-45
2023/01/29 09:00:30;;;;;;;68.53;29.67;;;0.60;99.90;;;;;;5052169;28;20203;-45
2023/01/29 09:02:58;;;;;;;57.58;26.92;;;0.60;99.90;;;;;;5052648;28;20650;-45
2023/01/29 09:05:24;;;;;;;61.25;27.25;;;0.50;99.90;;;;;;5051489;28;20739;-45
2023/01/29 09:07:50;;;;;;;65.10;28.27;;;0.40;99.90;;;;;;5051375;28;20174;-45
2023/01/29 09:10:16;;;;;;;79.75;34.00;;;0.20;99.90;;;;;;5051012;28;20174;-45
2023/01/29 09:12:41;;;;;;;72.80;32.00;;;0.40;99.90;;;;;;5051683;28;20205;-45
2023/01/29 09:15:07;;;;;;;64.95;28.55;;;0.50;99.90;;;;;;5050223;28;20217;-45
2023/01/29 09:17:33;;;;;;;60.45;28.48;;;0.60;99.90;;;;;;5051672;28;20528;-45
2023/01/29 09:19:58;;;;;;;52.97;26.48;;;0.70;99.90;;;;;;5051683;28;20166;-45
2023/01/29 09:22:24;;;;;;;44.15;24.33;;;0.80;99.90;;;;;;5051295;28;20664;-45
2023/01/29 09:24:50;;;;;;;50.95;25.60;;;0.70;99.90;;;;;;5051298;28;20189;-45
2023/01/29 09:27:15;;;;;;;46.38;23.33;;;0.70;99.90;;;;;;5051318;28;20232;-45
2023/01/29 09:29:41;;;;;;;47.72;25.08;;;0.80;99.90;;;;;;5051381;28;20186;-45
2023/01/29 09:32:07;;;;;;;43.97;23.23;;;0.70;99.90;;;;;;5061510;28;20174;-45
2023/01/29 09:34:33;;;;;;;49.67;22.67;;;0.80;99.90;;;;;;5072208;28;20180;-45
2023/01/29 09:36:58;;;;;;;40.85;22.33;;;0.90;99.90;;;;;;5071925;28;20695;-45
2023/01/29 09:39:24;;;;;;;43.20;22.30;;;0.80;99.90;;;;;;5071244;28;20170;-45
2023/01/29 09:42:14;;;;;;;44.95;23.83;;;0.80;99.90;;;;;;5071468;28;20247;-45
2023/01/29 09:45:07;;;;;;;49.72;23.60;;;0.90;99.90;;;;;;5071246;28;20162;-45
2023/01/29 09:47:35;;;;;;;45.25;23.30;;;1.00;99.90;;;;;;5070063;28;20571;-45
2023/01/29 09:50:06;;;;;;;45.30;22.92;;;1.00;99.90;;;;;;5071607;28;20622;-45
2023/01/29 09:52:39;;;;;;;48.22;25.77;;;1.10;99.90;;;;;;5071626;28;20173;-45
2023/01/29 09:55:25;;;;;;;40.80;23.13;;;1.10;99.90;;;;;;5071385;28;20169;-45
2023/01/29 09:57:59;;;;;;;42.15;20.98;;;1.10;99.90;;;;;;5071218;28;20566;-45
2023/01/29 10:00:57;;;;;;;43.47;21.83;;;1.10;99.90;;;;;;5071377;28;20176;-45
2023/01/29 10:03:41;;;;;;;37.95;19.95;;;1.10;99.90;;;;;;5050974;28;20178;-45
2023/01/29 10:06:42;;;;;;;41.25;22.20;;;1.20;99.90;;;;;;5051121;28;20619;-45
2023/01/29 10:09:32;;;;;;;43.03;22.35;;;1.20;99.90;;;;;;5051230;28;20347;-45
2023/01/29 10:12:13;;;;;;;44.83;23.70;;;1.20;99.90;;;;;;5051564;28;20167;-45
2023/01/29 10:15:02;;;;;;;47.22;24.95;;;1.30;99.90;;;;;;5051228;28;20169;-45
2023/01/29 10:17:47;;;;;;;43.80;22.75;;;1.30;99.90;;;;;;5051280;28;20179;-45
2023/01/29 10:20:40;;;;;;;45.30;24.42;;;1.50;99.90;;;;;;5052372;28;20163;-45
2023/01/29 10:23:28;;;;;;;42.40;21.95;;;1.50;99.90;;;;;;5055029;28;20194;-45
2023/01/29 10:25:54;;;;;;;40.53;22.05;;;1.60;99.90;;;;;;5054789;28;20202;-45
2023/01/29 10:28:37;;;;;;;45.17;22.77;;;1.70;99.90;;;;;;5054787;28;20173;-45
2023/01/29 10:31:31;;;;;;;41.75;23.20;;;1.70;99.90;;;;;;5055925;28;20202;-45
2023/01/29 10:34:10;;;;;;;42.25;23.05;;;1.80;99.90;;;;;;5062638;28;20633;-45
2023/01/29 10:36:45;;;;;;;40.15;22.40;;;1.80;99.90;;;;;;5074644;28;20169;-45
2023/01/29 10:39:21;;;;;;;42.00;22.08;;;1.90;99.90;;;;;;5074505;28;20189;-45
2023/01/29 10:42:10;;;;;;;40.10;22.38;;;2.00;99.90;;;;;;5074607;28;20174;-45
2023/01/29 10:45:08;;;;;;;49.05;23.17;;;2.00;99.90;;;;;;5074548;28;20162;-45
2023/01/29 10:48:08;;;;;;;40.95;22.60;;;2.10;99.90;;;;;;5074516;28;20202;-45
2023/01/29 10:50:48;;;;;;;43.17;22.90;;;2.00;99.90;;;;;;5074640;28;20256;-45
2023/01/29 10:53:26;;;;;;;40.95;21.85;;;2.00;99.90;;;;;;5074356;28;20166;-44
2023/01/29 10:56:17;;;;;;;41.50;23.60;;;2.10;99.90;;;;;;5074148;28;20162;-44
2023/01/29 10:58:53;;;;;;;43.30;23.35;;;2.20;99.90;;;;;;5074317;28;20216;-45
2023/01/29 11:01:19;;;;;;;42.53;21.88;;;2.20;99.90;;;;;;5073383;28;20162;-44
2023/01/29 11:03:45;;;;;;;39.50;21.30;;;2.30;99.90;;;;;;5073479;28;20221;-44
2023/01/29 11:06:20;;;;;;;46.45;23.58;;;2.20;99.90;;;;;;5073843;28;20213;-45
2023/01/29 11:08:55;;;;;;;48.42;22.95;;;2.20;99.90;;;;;;5073671;28;20295;-44
2023/01/29 11:11:29;;;;;;;50.42;23.77;;;2.10;99.90;;;;;;5073793;28;20158;-44
2023/01/29 11:14:06;;;;;;;46.72;23.35;;;2.10;99.90;;;;;;5073548;28;20256;-44
2023/01/29 11:16:43;;;;;;;41.13;22.75;;;2.00;99.90;;;;;;5074407;28;20256;-44
2023/01/29 11:19:09;;;;;;;46.90;23.55;;;2.00;99.90;;;;;;5073606;28;20323;-44
2023/01/29 11:21:52;;;;;;;41.78;22.80;;;2.10;99.90;;;;;;5072508;28;20174;-44
2023/01/29 11:24:18;;;;;;;44.35;23.95;;;2.30;99.90;;;;;;5073825;28;20539;-45
2023/01/29 11:26:47;;;;;;;45.55;24.73;;;2.30;99.90;;;;;;5072248;28;20216;-44
2023/01/29 11:29:33;;;;;;;40.85;22.45;;;2.40;99.90;;;;;;5073671;28;20170;-44
2023/01/29 11:32:02;;;;;;;60.17;31.45;;;2.40;99.90;;;;;;5062440;28;20221;-44
2023/01/29 11:34:28;;;;;;;49.47;25.75;;;2.50;99.90;;;;;;5055402;28;20167;-45
2023/01/29 11:36:58;;;;;;;46.88;24.90;;;2.70;99.90;;;;;;5063140;28;20179;-44
2023/01/29 11:39:26;;;;;;;46.33;20.80;;;2.60;99.90;;;;;;5053583;28;20171;-44
2023/01/29 11:42:03;;;;;;;45.05;23.38;;;2.50;99.90;;;;;;5053149;28;20216;-45
2023/01/29 11:44:37;;;;;;;48.38;25.33;;;2.50;99.90;;;;;;5058926;28;20625;-44
2023/01/29 11:47:13;;;;;;;43.67;23.05;;;2.70;99.90;;;;;;5072801;28;20665;-44
2023/01/29 11:49:44;;;;;;;38.20;20.15;;;2.80;99.90;;;;;;5073268;28;20168;-44
2023/01/29 11:52:10;;;;;;;33.47;18.60;;;2.70;99.90;;;;;;5058461;28;20178;-45
2023/01/29 11:54:45;;;;;;;37.63;20.70;;;2.60;99.90;;;;;;5055926;28;20261;-45
2023/01/29 11:57:25;;;;;;;52.17;24.52;;;2.50;99.90;;;;;;5071999;28;20265;-45
2023/01/29 11:59:53;;;;;;;42.45;21.02;;;2.50;99.90;;;;;;5073191;28;20173;-46
2023/01/29 12:02:29;;;;;;;36.22;19.02;;;2.40;99.90;;;;;;5073310;28;20196;-45
2023/01/29 12:04:56;;;;;;;37.83;20.45;;;2.40;99.90;;;;;;5072834;28;20680;-46
2023/01/29 12:07:22;;;;;;;36.58;19.27;;;2.60;99.90;;;;;;5070156;28;20263;-46
2023/01/29 12:09:54;;;;;;;39.95;19.17;;;2.60;99.90;;;;;;5054363;28;20597;-45
2023/01/29 12:12:35;;;;;;;35.72;18.17;;;2.50;99.90;;;;;;5053015;28;20205;-45
2023/01/29 12:15:03;;;;;;;41.20;17.63;;;2.50;99.90;;;;;;5053121;28;20610;-45
2023/01/29 12:17:35;;;;;;;33.63;19.02;;;2.60;99.90;;;;;;5053057;28;20177;-45
2023/01/29 12:20:13;;;;;;;34.45;18.52;;;2.70;99.90;;;;;;5052709;28;20588;-45
2023/01/29 12:22:46;;;;;;;35.28;18.00;;;2.60;99.90;;;;;;5052542;28;20166;-45
2023/01/29 12:25:33;;;;;;;39.60;19.77;;;2.60;99.90;;;;;;5052694;28;20530;-45
2023/01/29 12:28:06;;;;;;;30.90;17.00;;;4.70;99.90;;;;;;5059198;28;20178;-45
2023/01/29 12:30:50;;;;;;;34.60;18.40;;;2.70;99.90;;;;;;5072040;28;20186;-45
2023/01/29 12:33:40;;;;;;;36.58;17.70;;;2.80;99.90;;;;;;5072243;28;20166;-44
2023/01/29 12:36:17;;;;;;;33.55;18.27;;;2.70;99.90;;;;;;5072172;28;20352;-44
2023/01/29 12:38:43;;;;;;;35.83;18.05;;;2.70;99.90;;;;;;5072037;28;20657;-44
2023/01/29 12:41:24;;;;;;;36.10;18.13;;;2.70;99.90;;;;;;5071894;28;20204;-44
2023/01/29 12:44:18;;;;;;;48.40;19.75;;;2.70;99.90;;;;;;5071414;28;20634;-44
2023/01/29 12:46:49;;;;;;;42.53;20.60;;;2.80;99.90;;;;;;5066104;28;20225;-44
2023/01/29 12:49:21;;;;;;;44.50;20.58;;;2.80;99.90;;;;;;5071647;28;20192;-44
2023/01/29 12:51:57;;;;;;;42.53;21.95;;;3.00;99.90;;;;;;5071825;28;20177;-44
2023/01/29 12:54:56;;;;;;;44.65;21.38;;;3.10;99.90;;;;;;5068146;28;20167;-44
2023/01/29 12:57:36;;;;;;;40.42;19.73;;;3.30;99.90;;;;;;5051418;28;20170;-44
2023/01/29 13:00:16;;;;;;;36.22;19.33;;;3.30;99.90;;;;;;5057168;28;20169;-45
2023/01/29 13:02:54;;;;;;;32.85;18.05;;;3.20;99.90;;;;;;5071747;28;20655;-44
2023/01/29 13:05:28;;;;;;;39.70;18.67;;;3.20;99.90;;;;;;5071531;28;20719;-45
2023/01/29 13:08:04;;;;;;;31.80;16.15;;;3.20;99.90;;;;;;5056672;28;20759;-45
2023/01/29 13:10:37;;;;;;;40.97;21.02;;;3.10;99.90;;;;;;5071591;28;20177;-44
2023/01/29 13:13:13;;;;;;;38.42;19.95;;;3.10;99.90;;;;;;5070297;28;20174;-45
2023/01/29 13:15:43;;;;;;;40.63;19.90;;;3.10;99.90;;;;;;5069949;28;20633;-45
2023/01/29 13:18:33;;;;;;;40.88;20.98;;;3.20;99.90;;;;;;5050965;28;20171;-44
2023/01/29 13:21:00;;;;;;;40.05;20.27;;;3.20;99.90;;;;;;5050535;28;20163;-45
2023/01/29 13:23:36;;;;;;;42.30;19.67;;;3.10;99.90;;;;;;5049420;28;20195;-45